Time;durP1;ratioP1;P1;durP2;ratioP2;P2;SDS_P1;SDS_P2;PMS_P1;PMS_P2;Temp;Humidity;BMP_temperature;BMP_pressure;BME280_temperature;BME280_humidity;BME280_pressure;Samples;Min_cycle;Max_cycle;Signal;HPM_P1;HPM_P2
2023/08/18 00:00:15;;;;;;;4.65;4.25;;;;;;;24.73;48.04;94918.41;5037895;28;20201;-68
2023/08/18 00:02:41;;;;;;;4.78;4.38;;;;;;;24.70;47.75;94908.03;5037917;28;20201;-67
2023/08/18 00:05:09;;;;;;;4.20;3.90;;;;;;;24.69;47.69;94912.88;5038043;28;20272;-68
2023/08/18 00:07:35;;;;;;;4.57;4.18;;;;;;;24.69;47.88;94918.53;5054293;28;20221;-68
2023/08/18 00:10:03;;;;;;;4.85;4.28;;;;;;;24.67;48.26;94920.19;5037731;28;20617;-68
2023/08/18 00:12:30;;;;;;;4.90;4.40;;;;;;;24.67;47.74;94917.38;5037701;28;20205;-68
2023/08/18 00:14:59;;;;;;;4.28;3.88;;;;;;;24.69;48.05;94912.88;5054158;28;20212;-68
2023/08/18 00:17:25;;;;;;;4.40;4.00;;;;;;;24.60;48.24;94911.97;5037502;28;20197;-68
2023/08/18 00:19:52;;;;;;;4.90;4.03;;;;;;;24.58;48.03;94912.38;5054490;28;20720;-68
2023/08/18 00:22:19;;;;;;;5.43;4.30;;;;;;;24.55;47.85;94910.50;5037775;28;20622;-68
2023/08/18 00:24:45;;;;;;;4.97;4.30;;;;;;;24.57;48.56;94915.66;5053385;28;20194;-68
2023/08/18 00:27:14;;;;;;;4.03;3.72;;;;;;;24.57;48.08;94907.22;5054278;28;20194;-68
2023/08/18 00:29:41;;;;;;;4.78;4.25;;;;;;;24.57;47.84;94913.63;5037992;28;20590;-68
2023/08/18 00:32:09;;;;;;;4.70;4.30;;;;;;;24.60;47.95;94900.69;5037281;28;20197;-67
2023/08/18 00:34:35;;;;;;;4.68;4.28;;;;;;;24.58;47.71;94900.31;5037365;28;20213;-67
2023/08/18 00:37:02;;;;;;;4.40;3.92;;;;;;;24.57;48.07;94901.56;5037416;28;20197;-68
2023/08/18 00:39:29;;;;;;;4.45;4.10;;;;;;;24.52;47.92;94894.47;5053805;28;20237;-68
2023/08/18 00:41:57;;;;;;;4.38;3.97;;;;;;;24.53;48.06;94896.03;5037123;28;20202;-68
2023/08/18 00:44:24;;;;;;;5.18;4.05;;;;;;;24.53;48.14;94893.22;5053929;28;20205;-68
2023/08/18 00:46:51;;;;;;;4.28;3.90;;;;;;;24.55;47.62;94901.22;5053777;28;20197;-68
2023/08/18 00:49:20;;;;;;;4.57;4.13;;;;;;;24.54;47.56;94900.44;5037446;28;20225;-68
2023/08/18 00:51:46;;;;;;;4.30;4.00;;;;;;;24.54;47.97;94899.66;5053685;28;20578;-68
2023/08/18 00:54:13;;;;;;;4.80;4.30;;;;;;;24.50;48.07;94909.00;5054162;28;20205;-68
2023/08/18 00:56:42;;;;;;;4.15;3.78;;;;;;;24.52;48.05;94902.13;5053921;28;20202;-68
2023/08/18 00:59:10;;;;;;;4.35;4.05;;;;;;;24.43;48.28;94902.78;5054287;28;20209;-68
2023/08/18 01:01:38;;;;;;;4.53;4.10;;;;;;;24.45;48.06;94901.09;5037438;28;20207;-69
2023/08/18 01:04:05;;;;;;;4.75;4.35;;;;;;;24.46;48.37;94897.03;5037441;28;20207;-69
2023/08/18 01:06:33;;;;;;;4.50;4.10;;;;;;;24.47;48.26;94903.47;5053858;28;20198;-69
2023/08/18 01:09:00;;;;;;;4.93;4.53;;;;;;;24.42;48.39;94906.84;5036771;28;20225;-69
2023/08/18 01:11:35;;;;;;;5.45;4.50;;;;;;;24.33;48.69;94898.19;5054704;28;20201;-68
2023/08/18 01:14:14;;;;;;;4.70;4.30;;;;;;;24.33;48.78;94903.84;5037154;28;20194;-68
2023/08/18 01:16:44;;;;;;;4.50;4.20;;;;;;;24.32;48.77;94903.06;5036824;28;20198;-69
2023/08/18 01:19:12;;;;;;;4.72;4.32;;;;;;;24.35;48.93;94904.19;5037271;28;20209;-68
2023/08/18 01:21:43;;;;;;;4.47;4.07;;;;;;;24.36;48.96;94900.91;5053613;28;20197;-68
2023/08/18 01:24:11;;;;;;;5.07;4.05;;;;;;;24.32;48.94;94908.69;5036781;28;20198;-68
2023/08/18 01:26:39;;;;;;;5.93;4.70;;;;;;;24.29;49.20;94905.97;5054273;28;20269;-68
2023/08/18 01:29:07;;;;;;;4.90;4.50;;;;;;;24.31;49.03;94904.31;5054159;28;20225;-67
2023/08/18 01:31:37;;;;;;;4.72;4.03;;;;;;;24.30;48.95;94908.38;5036900;28;20201;-67
2023/08/18 01:34:25;;;;;;;5.00;4.60;;;;;;;24.27;49.11;94910.03;5053464;28;20213;-68
2023/08/18 01:36:52;;;;;;;4.95;4.57;;;;;;;24.23;49.36;94914.19;5055984;28;20186;-68
2023/08/18 01:39:21;;;;;;;4.68;4.28;;;;;;;24.26;49.09;94919.75;5037432;28;20658;-68
2023/08/18 01:41:50;;;;;;;5.47;4.35;;;;;;;24.24;49.22;94922.19;5037674;28;20191;-68
2023/08/18 01:44:18;;;;;;;5.43;4.80;;;;;;;24.24;48.99;94918.59;5053876;28;20194;-68
2023/08/18 01:46:46;;;;;;;4.75;4.35;;;;;;;24.21;49.36;94923.09;5036859;28;20199;-68
2023/08/18 01:49:13;;;;;;;5.03;4.53;;;;;;;24.16;49.66;94920.03;5036996;28;20552;-68
2023/08/18 01:51:39;;;;;;;5.03;4.60;;;;;;;24.12;49.85;94922.16;5037123;28;20202;-68
2023/08/18 01:54:06;;;;;;;5.30;4.80;;;;;;;24.07;49.94;94917.84;5053774;28;20631;-68
2023/08/18 01:56:36;;;;;;;4.70;4.30;;;;;;;24.06;50.02;94913.44;5053699;28;20208;-68
2023/08/18 01:59:04;;;;;;;5.60;4.78;;;;;;;24.05;50.16;94919.53;5037461;28;20202;-68
2023/08/18 02:01:31;;;;;;;5.00;4.60;;;;;;;24.03;50.10;94919.97;5053955;28;20203;-68
2023/08/18 02:03:58;;;;;;;4.93;4.57;;;;;;;24.01;50.21;94911.97;5037338;28;20202;-69
2023/08/18 02:06:25;;;;;;;6.38;4.47;;;;;;;23.97;50.16;94911.28;5037038;28;20210;-67
2023/08/18 02:08:52;;;;;;;5.00;4.60;;;;;;;23.90;50.55;94914.28;5036303;28;20226;-67
2023/08/18 02:11:18;;;;;;;5.22;4.72;;;;;;;23.82;50.65;94909.28;5053504;28;20236;-68
2023/08/18 02:13:47;;;;;;;5.95;5.35;;;;;;;23.73;51.34;94910.72;5053687;28;20191;-68
2023/08/18 02:16:14;;;;;;;5.45;4.75;;;;;;;23.68;51.55;94899.22;5036643;28;20199;-68
2023/08/18 02:18:41;;;;;;;5.13;4.72;;;;;;;23.60;51.82;94903.38;5052971;28;20688;-68
2023/08/18 02:21:08;;;;;;;5.07;4.68;;;;;;;23.57;52.10;94896.63;5053722;28;20206;-68
2023/08/18 02:23:34;;;;;;;5.28;4.78;;;;;;;23.53;52.34;94893.91;5036359;28;20508;-68
2023/08/18 02:26:02;;;;;;;5.25;4.82;;;;;;;23.50;52.45;94894.00;5053242;28;20202;-68
2023/08/18 02:28:30;;;;;;;5.55;5.00;;;;;;;23.47;52.20;94895.66;5036385;28;20218;-68
2023/08/18 02:31:03;;;;;;;5.15;4.75;;;;;;;23.45;51.90;94898.13;5036148;28;20194;-68
2023/08/18 02:33:30;;;;;;;5.53;5.07;;;;;;;23.46;51.91;94898.94;5053106;28;20549;-68
2023/08/18 02:35:58;;;;;;;5.00;4.60;;;;;;;23.44;52.25;94895.75;5052977;28;20210;-67
2023/08/18 02:38:25;;;;;;;5.70;5.20;;;;;;;23.46;51.93;94898.94;5035887;28;20230;-67
2023/08/18 02:40:53;;;;;;;4.72;4.32;;;;;;;23.47;52.03;94897.69;5036229;28;20203;-67
2023/08/18 02:43:23;;;;;;;5.00;4.60;;;;;;;23.48;51.89;94893.66;5052893;28;20198;-67
2023/08/18 02:45:50;;;;;;;5.40;4.63;;;;;;;23.49;51.84;94893.22;5053226;28;20191;-67
2023/08/18 02:48:18;;;;;;;5.50;5.00;;;;;;;23.47;51.91;94898.47;5035802;28;20211;-67
2023/08/18 02:50:44;;;;;;;5.38;4.97;;;;;;;23.42;52.21;94895.41;5052784;28;20206;-67
2023/08/18 02:53:11;;;;;;;5.60;5.10;;;;;;;23.35;52.35;94904.84;5036215;28;20202;-67
2023/08/18 02:55:39;;;;;;;5.45;5.05;;;;;;;23.29;52.46;94896.13;5052803;28;20206;-67
2023/08/18 02:58:07;;;;;;;5.43;5.03;;;;;;;23.24;52.87;94905.09;5052384;28;20285;-67
2023/08/18 03:00:35;;;;;;;5.53;5.03;;;;;;;23.19;53.28;94905.59;5035485;28;20198;-68
2023/08/18 03:03:03;;;;;;;5.90;5.20;;;;;;;23.16;53.23;94900.84;5052210;28;20210;-67
2023/08/18 03:05:31;;;;;;;5.45;5.03;;;;;;;23.15;53.40;94899.28;5052587;28;20217;-67
2023/08/18 03:07:57;;;;;;;5.55;5.00;;;;;;;23.12;53.93;94902.19;5052566;28;20190;-65
2023/08/18 03:10:24;;;;;;;6.50;4.97;;;;;;;23.07;54.03;94900.69;5035547;28;20562;-65
2023/08/18 03:12:51;;;;;;;5.78;5.28;;;;;;;23.05;54.00;94911.56;5052143;28;20202;-65
2023/08/18 03:15:17;;;;;;;6.22;5.65;;;;;;;23.04;53.68;94910.00;5052729;28;20207;-65
2023/08/18 03:17:44;;;;;;;6.00;5.22;;;;;;;23.02;53.68;94907.63;5052134;28;20194;-65
2023/08/18 03:20:11;;;;;;;5.43;5.03;;;;;;;23.00;53.58;94912.91;5035695;28;20206;-65
2023/08/18 03:22:40;;;;;;;5.68;4.90;;;;;;;23.00;53.79;94904.47;5036338;28;20187;-65
2023/08/18 03:25:08;;;;;;;4.97;4.57;;;;;;;22.99;53.62;94914.13;5052282;28;20213;-65
2023/08/18 03:27:35;;;;;;;5.45;4.85;;;;;;;22.99;53.39;94913.34;5051908;28;20191;-66
2023/08/18 03:30:04;;;;;;;5.20;4.80;;;;;;;22.99;53.31;94918.97;5035082;28;20222;-65
2023/08/18 03:32:30;;;;;;;5.43;4.93;;;;;;;22.97;53.54;94915.78;5052089;28;20202;-65
2023/08/18 03:34:57;;;;;;;6.25;5.07;;;;;;;22.96;53.65;94917.81;5051986;28;20206;-65
2023/08/18 03:37:24;;;;;;;6.00;5.50;;;;;;;22.94;53.53;94919.47;5052234;28;20578;-65
2023/08/18 03:39:55;;;;;;;5.82;5.10;;;;;;;22.92;54.69;94917.09;5055651;28;20198;-65
2023/08/18 03:42:21;;;;;;;5.30;4.90;;;;;;;22.86;54.71;94910.38;5038488;28;20590;-65
2023/08/18 03:44:50;;;;;;;6.28;5.43;;;;;;;22.87;54.57;94908.34;5038383;28;20197;-65
2023/08/18 03:47:20;;;;;;;5.57;5.07;;;;;;;22.87;54.93;94916.78;5038987;28;20194;-65
2023/08/18 03:49:48;;;;;;;6.55;5.35;;;;;;;22.83;55.18;94917.66;5055062;28;20232;-65
2023/08/18 03:52:17;;;;;;;6.25;5.68;;;;;;;22.80;55.56;94917.75;5054958;28;20202;-65
2023/08/18 03:54:45;;;;;;;8.02;6.60;;;;;;;22.75;55.69;94919.06;5054441;28;20657;-67
2023/08/18 03:57:18;;;;;;;5.60;5.10;;;;;;;22.73;55.63;94912.28;5054616;28;20217;-65
2023/08/18 03:59:46;;;;;;;6.43;5.82;;;;;;;22.72;56.27;94910.69;5054051;28;20247;-65
2023/08/18 04:02:15;;;;;;;6.28;5.68;;;;;;;22.65;56.65;94910.84;5038116;28;20186;-70
2023/08/18 04:04:43;;;;;;;6.72;6.03;;;;;;;22.60;57.12;94920.59;5054795;28;20206;-65
2023/08/18 04:07:11;;;;;;;6.60;5.97;;;;;;;22.55;57.23;94921.91;5037845;28;20197;-65
2023/08/18 04:09:39;;;;;;;7.15;6.25;;;;;;;22.53;57.02;94921.53;5038231;28;20225;-65
2023/08/18 04:12:08;;;;;;;7.60;6.60;;;;;;;22.51;57.34;94924.00;5037815;28;20198;-65
2023/08/18 04:14:36;;;;;;;9.50;6.43;;;;;;;22.49;57.37;94926.44;5038017;28;20205;-65
2023/08/18 04:17:04;;;;;;;8.50;6.63;;;;;;;22.47;57.57;94931.69;5038548;28;20590;-65
2023/08/18 04:19:32;;;;;;;7.97;7.18;;;;;;;22.45;57.75;94930.56;5037658;28;20553;-65
2023/08/18 04:21:59;;;;;;;8.32;6.30;;;;;;;22.43;58.02;94930.97;5037626;28;20198;-65
2023/08/18 04:24:27;;;;;;;7.03;6.28;;;;;;;22.42;57.74;94940.66;5037621;28;20209;-65
2023/08/18 04:26:59;;;;;;;9.35;6.80;;;;;;;22.43;58.04;94936.59;5037795;28;20186;-65
2023/08/18 04:29:28;;;;;;;7.45;6.75;;;;;;;22.41;58.13;94936.25;5037896;28;20218;-65
2023/08/18 04:31:57;;;;;;;6.63;6.03;;;;;;;22.40;58.51;94937.47;5054130;28;20196;-65
2023/08/18 04:34:25;;;;;;;8.85;6.35;;;;;;;22.39;58.81;94938.69;5037398;28;20197;-65
2023/08/18 04:36:52;;;;;;;6.80;6.20;;;;;;;22.38;59.18;94933.53;5037318;28;20205;-65
2023/08/18 04:39:21;;;;;;;7.82;6.15;;;;;;;22.37;59.28;94934.72;5037731;28;20240;-65
2023/08/18 04:41:49;;;;;;;7.18;6.57;;;;;;;22.37;59.81;94938.34;5054228;28;20198;-65
2023/08/18 04:44:17;;;;;;;8.77;7.07;;;;;;;22.37;60.31;94935.56;5054096;28;20202;-65
2023/08/18 04:46:48;;;;;;;7.65;6.95;;;;;;;22.37;59.97;94940.34;5053882;28;20189;-65
2023/08/18 04:49:16;;;;;;;8.05;6.97;;;;;;;22.39;60.17;94946.34;5037473;28;20239;-65
2023/08/18 04:51:44;;;;;;;9.90;7.18;;;;;;;22.41;60.15;94944.69;5037924;28;20227;-65
2023/08/18 04:54:12;;;;;;;7.38;6.78;;;;;;;22.42;60.10;94943.47;5037674;28;20201;-65
2023/08/18 04:56:39;;;;;;;7.82;6.88;;;;;;;22.42;60.47;94946.28;5037252;28;20198;-65
2023/08/18 04:59:08;;;;;;;8.55;6.45;;;;;;;22.40;60.52;94943.09;5037769;28;20201;-65
2023/08/18 05:01:36;;;;;;;6.97;6.32;;;;;;;22.39;60.63;94949.94;5037976;28;20201;-65
2023/08/18 05:04:04;;;;;;;8.57;6.00;;;;;;;22.40;59.92;94951.50;5037727;28;20204;-65
2023/08/18 05:06:33;;;;;;;8.48;6.00;;;;;;;22.44;59.35;94946.63;5037086;28;20200;-65
2023/08/18 05:09:00;;;;;;;6.20;5.63;;;;;;;22.49;58.93;94950.94;5036947;28;20218;-65
2023/08/18 05:11:28;;;;;;;8.05;5.95;;;;;;;22.52;58.34;94962.13;5057800;28;20192;-65
2023/08/18 05:13:56;;;;;;;8.05;5.97;;;;;;;22.54;57.98;94954.03;5058022;28;20259;-65
2023/08/18 05:16:24;;;;;;;7.45;5.60;;;;;;;22.57;57.90;94961.59;5041263;28;20302;-65
2023/08/18 05:18:54;;;;;;;8.60;6.80;;;;;;;22.59;57.86;94956.34;5057448;28;20189;-65
2023/08/18 05:21:22;;;;;;;8.65;6.40;;;;;;;22.62;58.05;94957.47;5041322;28;20210;-65
2023/08/18 05:23:54;;;;;;;7.10;6.32;;;;;;;22.65;58.08;94958.63;5041264;28;20213;-65
2023/08/18 05:26:25;;;;;;;6.85;6.07;;;;;;;22.65;58.21;94964.25;5041377;28;20206;-65
2023/08/18 05:28:53;;;;;;;6.60;5.90;;;;;;;22.68;57.94;94955.75;5057847;28;20182;-65
2023/08/18 05:31:20;;;;;;;8.32;5.93;;;;;;;22.70;58.36;94963.78;5057786;28;20197;-65
2023/08/18 05:33:48;;;;;;;6.22;5.70;;;;;;;22.72;57.98;94969.72;5058487;28;20193;-65
2023/08/18 05:36:17;;;;;;;6.55;5.95;;;;;;;22.74;57.59;94967.28;5040965;28;20198;-65
2023/08/18 05:38:48;;;;;;;6.60;6.00;;;;;;;22.78;57.74;94962.38;5037668;28;20242;-65
2023/08/18 05:41:18;;;;;;;8.30;5.57;;;;;;;22.81;57.89;94967.94;5037732;28;20190;-65
2023/08/18 05:43:46;;;;;;;6.85;6.25;;;;;;;22.84;58.35;94966.28;5037787;28;20610;-65
2023/08/18 05:46:15;;;;;;;6.57;5.97;;;;;;;22.87;57.86;94961.78;5054117;28;20210;-65
2023/08/18 05:48:43;;;;;;;6.20;5.70;;;;;;;22.88;57.19;94966.19;5037137;28;20564;-65
2023/08/18 05:51:11;;;;;;;6.22;5.68;;;;;;;22.89;56.98;94968.56;5054188;28;20214;-65
2023/08/18 05:53:39;;;;;;;9.65;6.35;;;;;;;22.92;57.16;94972.56;5054213;28;20191;-65
2023/08/18 05:56:09;;;;;;;6.22;5.65;;;;;;;22.96;57.11;94962.03;5037075;28;20191;-65
2023/08/18 05:58:39;;;;;;;6.70;5.45;;;;;;;22.99;57.01;94961.16;5053857;28;20194;-65
2023/08/18 06:01:07;;;;;;;8.20;5.80;;;;;;;23.03;56.88;94959.06;5037012;28;20529;-65
2023/08/18 06:03:35;;;;;;;7.07;5.93;;;;;;;23.07;56.93;94956.94;5037475;28;20206;-65
2023/08/18 06:06:03;;;;;;;7.03;5.78;;;;;;;23.11;57.01;94954.84;5053815;28;20205;-65
2023/08/18 06:08:31;;;;;;;8.30;6.30;;;;;;;23.16;56.42;94959.16;5053755;28;20206;-65
2023/08/18 06:10:59;;;;;;;6.10;5.50;;;;;;;23.18;55.91;94954.66;5053179;28;20225;-65
2023/08/18 06:13:27;;;;;;;6.13;5.60;;;;;;;23.20;55.40;94954.22;5053802;28;20202;-65
2023/08/18 06:15:57;;;;;;;6.90;6.00;;;;;;;23.23;55.54;94958.97;5037003;28;20210;-65
2023/08/18 06:18:25;;;;;;;7.38;5.60;;;;;;;23.24;55.52;94955.75;5053363;28;20544;-65
2023/08/18 06:20:55;;;;;;;7.28;5.35;;;;;;;23.23;54.72;94951.31;5036199;28;20207;-65
2023/08/18 06:23:25;;;;;;;5.72;5.20;;;;;;;23.27;55.09;94949.22;5036253;28;20202;-65
2023/08/18 06:25:58;;;;;;;5.28;4.85;;;;;;;23.30;55.08;94948.34;5053386;28;20226;-65
2023/08/18 06:28:27;;;;;;;6.05;5.45;;;;;;;23.37;55.20;94955.03;5053275;28;20273;-65
2023/08/18 06:30:54;;;;;;;8.55;7.75;;;;;;;23.41;55.21;94950.09;5036231;28;20265;-65
2023/08/18 06:33:24;;;;;;;9.15;8.52;;;;;;;23.45;55.08;94956.44;5052015;28;20198;-65
2023/08/18 06:35:52;;;;;;;6.57;6.00;;;;;;;23.49;54.89;94957.97;5052959;28;20194;-65
2023/08/18 06:38:20;;;;;;;6.63;5.95;;;;;;;23.52;55.11;94959.88;5036322;28;20234;-65
2023/08/18 06:40:48;;;;;;;6.03;5.50;;;;;;;23.57;54.34;94960.56;5036401;28;20203;-65
2023/08/18 06:43:17;;;;;;;5.72;5.22;;;;;;;23.60;54.45;94963.28;5036785;28;20194;-65
2023/08/18 06:45:45;;;;;;;6.20;5.65;;;;;;;23.65;54.28;94962.00;5036632;28;20202;-65
2023/08/18 06:48:13;;;;;;;5.93;5.15;;;;;;;23.73;53.84;94960.59;5036296;28;20615;-65
2023/08/18 06:50:48;;;;;;;5.68;5.22;;;;;;;23.77;53.83;94955.66;5036925;28;20729;-65
2023/08/18 06:53:16;;;;;;;5.60;5.10;;;;;;;23.81;53.26;94955.56;5053473;28;20284;-65
2023/08/18 06:55:44;;;;;;;5.85;5.28;;;;;;;23.83;53.28;94951.09;5036742;28;20206;-65
2023/08/18 06:58:12;;;;;;;6.53;5.55;;;;;;;23.91;52.36;94948.88;5036062;28;20203;-65
2023/08/18 07:00:40;;;;;;;5.40;4.90;;;;;;;23.94;52.53;94948.00;5052673;28;20228;-65
2023/08/18 07:03:08;;;;;;;5.40;4.88;;;;;;;24.02;52.56;94961.44;5036518;28;20252;-65
2023/08/18 07:05:36;;;;;;;5.47;4.97;;;;;;;24.08;52.22;94955.28;5052446;28;20198;-65
2023/08/18 07:08:08;;;;;;;7.75;5.28;;;;;;;24.13;52.19;94954.72;5035601;28;20203;-65
2023/08/18 07:10:36;;;;;;;5.30;4.78;;;;;;;24.16;51.88;94942.56;5052164;28;20665;-65
2023/08/18 07:13:04;;;;;;;5.60;5.10;;;;;;;24.19;51.90;94950.16;5052574;28;20202;-65
2023/08/18 07:15:33;;;;;;;5.55;5.05;;;;;;;24.28;50.81;94947.47;5035495;28;20208;-65
2023/08/18 07:18:03;;;;;;;5.00;4.60;;;;;;;24.33;50.60;94940.47;5035751;28;20190;-65
2023/08/18 07:20:31;;;;;;;5.07;4.63;;;;;;;24.36;51.18;94948.84;5052289;28;20193;-65
2023/08/18 07:22:59;;;;;;;5.03;4.63;;;;;;;24.42;51.27;94949.13;5051996;28;20207;-65
2023/08/18 07:25:31;;;;;;;7.53;5.22;;;;;;;24.47;50.68;94943.75;5035908;28;20199;-65
2023/08/18 07:27:59;;;;;;;5.95;5.20;;;;;;;24.54;50.66;94944.75;5035166;28;20600;-65
2023/08/18 07:30:27;;;;;;;5.35;4.85;;;;;;;24.63;50.31;94942.88;5035511;28;20222;-65
2023/08/18 07:32:56;;;;;;;5.57;5.10;;;;;;;24.69;50.42;94949.53;5035392;28;20217;-65
2023/08/18 07:35:26;;;;;;;5.68;4.90;;;;;;;24.78;50.05;94950.91;5035245;28;20278;-65
2023/08/18 07:37:54;;;;;;;5.88;5.03;;;;;;;24.83;50.61;94953.16;5035430;28;20685;-65
2023/08/18 07:40:22;;;;;;;5.65;5.03;;;;;;;24.90;50.15;94952.94;5051523;28;20623;-65
2023/08/18 07:42:51;;;;;;;5.35;4.85;;;;;;;24.95;49.86;94950.38;5052075;28;20191;-65
2023/08/18 07:45:19;;;;;;;5.55;5.05;;;;;;;25.03;49.27;94944.50;5052209;28;20202;-65
2023/08/18 07:47:47;;;;;;;5.40;4.93;;;;;;;25.06;49.54;94947.22;5035345;28;20221;-65
2023/08/18 07:50:15;;;;;;;6.10;5.15;;;;;;;25.12;49.36;94941.81;5051825;28;20272;-65
2023/08/18 07:52:43;;;;;;;5.38;4.88;;;;;;;25.20;49.38;94946.81;5034700;28;20191;-65
2023/08/18 07:55:12;;;;;;;5.32;4.82;;;;;;;25.26;49.18;94952.66;5035116;28;20202;-65
2023/08/18 07:57:40;;;;;;;5.85;5.25;;;;;;;25.31;48.47;94954.94;5035787;28;20186;-65
2023/08/18 08:00:16;;;;;;;4.80;4.50;;;;;;;25.37;48.41;94946.69;5051399;28;20226;-65
2023/08/18 08:02:44;;;;;;;6.43;5.22;;;;;;;25.49;47.67;94956.38;5051658;28;20198;-65
2023/08/18 08:05:13;;;;;;;5.25;4.82;;;;;;;25.54;48.13;94953.00;5051933;28;20202;-65
2023/08/18 08:07:41;;;;;;;4.72;4.32;;;;;;;25.60;47.91;94948.34;5051452;28;20209;-65
2023/08/18 08:10:12;;;;;;;5.28;4.72;;;;;;;25.66;48.44;94949.34;5051255;28;20222;-65
2023/08/18 08:12:40;;;;;;;4.85;4.45;;;;;;;25.81;47.07;94946.88;5034650;28;20191;-65
2023/08/18 08:15:13;;;;;;;4.75;4.35;;;;;;;25.87;46.28;94945.84;5035372;28;20202;-65
2023/08/18 08:17:41;;;;;;;4.80;4.40;;;;;;;25.91;46.21;94942.91;5035770;28;20183;-65
2023/08/18 08:20:15;;;;;;;6.95;5.20;;;;;;;25.96;46.48;94935.88;5034801;28;20190;-65
2023/08/18 08:22:43;;;;;;;5.80;4.93;;;;;;;26.10;46.14;94927.69;5034659;28;20194;-65
2023/08/18 08:25:12;;;;;;;6.35;4.88;;;;;;;26.27;45.33;94919.03;5050791;28;20619;-65
2023/08/18 08:27:40;;;;;;;5.22;4.53;;;;;;;26.35;44.46;94921.13;5050969;28;20696;-65
2023/08/18 08:30:12;;;;;;;6.15;4.97;;;;;;;26.38;44.92;94923.03;5050982;28;20229;-65
2023/08/18 08:32:41;;;;;;;6.22;4.88;;;;;;;26.45;44.64;94921.22;5034502;28;20191;-65
2023/08/18 08:35:11;;;;;;;5.05;4.53;;;;;;;26.56;44.52;94910.31;5034024;28;20611;-65
2023/08/18 08:37:41;;;;;;;5.80;4.60;;;;;;;26.62;43.06;94917.75;5035418;28;20209;-65
2023/08/18 08:40:11;;;;;;;4.38;4.00;;;;;;;26.63;43.10;94918.53;5054100;28;20198;-65
2023/08/18 08:42:39;;;;;;;4.40;4.10;;;;;;;26.68;42.93;94919.97;5037582;28;20209;-65
2023/08/18 08:45:08;;;;;;;5.63;4.57;;;;;;;26.74;42.88;94924.56;5054395;28;20198;-65
2023/08/18 08:47:42;;;;;;;4.40;4.10;;;;;;;26.85;42.45;94927.00;5037320;28;20201;-65
2023/08/18 08:50:14;;;;;;;4.65;4.25;;;;;;;27.02;42.61;94921.91;5037493;28;20245;-65
2023/08/18 08:52:45;;;;;;;4.47;3.72;;;;;;;27.18;40.87;94913.19;5037475;28;20202;-65
2023/08/18 08:55:13;;;;;;;4.03;3.63;;;;;;;27.30;40.68;94920.00;5037799;28;20194;-65
2023/08/18 08:57:41;;;;;;;4.15;3.58;;;;;;;27.36;39.65;94918.94;5037879;28;20205;-65
2023/08/18 09:00:14;;;;;;;4.30;3.88;;;;;;;27.46;39.00;94919.75;5037672;28;20204;-65
2023/08/18 09:02:44;;;;;;;3.90;3.60;;;;;;;27.52;38.91;94929.19;5037083;28;20198;-65
2023/08/18 09:05:12;;;;;;;4.15;3.30;;;;;;;27.58;38.31;94920.88;5037635;28;20198;-65
2023/08/18 09:07:40;;;;;;;4.60;3.75;;;;;;;27.66;39.49;94910.03;5037375;28;20198;-65
2023/08/18 09:10:09;;;;;;;4.18;3.78;;;;;;;27.75;38.08;94916.56;5037302;28;20573;-65
2023/08/18 09:12:37;;;;;;;4.63;3.60;;;;;;;27.82;37.60;94913.41;5037112;28;20198;-65
2023/08/18 09:15:09;;;;;;;4.03;3.65;;;;;;;27.83;38.08;94911.38;5037801;28;20206;-65
2023/08/18 09:17:37;;;;;;;4.20;3.40;;;;;;;27.83;37.31;94900.81;5037574;28;20209;-65
2023/08/18 09:20:07;;;;;;;4.30;3.42;;;;;;;27.91;37.31;94904.13;5037443;28;20198;-65
2023/08/18 09:22:34;;;;;;;5.20;3.53;;;;;;;28.04;37.61;94904.78;5053515;28;20201;-65
2023/08/18 09:25:02;;;;;;;3.75;3.45;;;;;;;28.21;36.68;94904.47;5053833;28;20196;-65
2023/08/18 09:27:30;;;;;;;4.00;3.47;;;;;;;28.31;36.48;94915.34;5037412;28;20194;-65
2023/08/18 09:30:01;;;;;;;4.05;3.30;;;;;;;28.37;36.80;94900.53;5037168;28;20201;-65
2023/08/18 09:32:29;;;;;;;4.05;3.05;;;;;;;28.42;36.15;94900.69;5053790;28;20194;-65
2023/08/18 09:34:59;;;;;;;3.72;3.42;;;;;;;28.48;36.64;94912.22;5037045;28;20217;-65
2023/08/18 09:37:34;;;;;;;4.47;3.60;;;;;;;28.58;36.58;94907.28;5037245;28;20198;-65
2023/08/18 09:40:02;;;;;;;3.78;3.47;;;;;;;28.62;36.36;94916.47;5017824;28;20198;-65
2023/08/18 09:42:29;;;;;;;4.95;3.80;;;;;;;28.69;37.00;94908.41;5033495;28;20260;-65
2023/08/18 09:44:57;;;;;;;5.40;4.32;;;;;;;28.77;36.36;94908.84;5033384;28;20203;-65
2023/08/18 09:47:27;;;;;;;5.55;3.80;;;;;;;28.91;36.31;94907.41;5033559;28;20213;-65
2023/08/18 09:49:55;;;;;;;3.67;3.45;;;;;;;29.03;36.83;94893.03;5017389;28;20256;-65
2023/08/18 09:52:28;;;;;;;4.35;3.88;;;;;;;29.11;36.66;94899.16;5016864;28;20214;-65
2023/08/18 09:55:06;;;;;;;5.07;3.80;;;;;;;29.15;35.97;94896.94;5017283;28;20214;-65
2023/08/18 09:57:38;;;;;;;4.10;3.40;;;;;;;29.05;35.60;94895.41;5018921;28;20202;-65
2023/08/18 10:00:09;;;;;;;4.68;3.47;;;;;;;29.00;36.04;94896.81;5020466;28;20202;-65
2023/08/18 10:02:38;;;;;;;6.40;4.00;;;;;;;29.00;36.36;94891.16;5020698;28;20194;-65
2023/08/18 10:05:05;;;;;;;5.70;4.47;;;;;;;29.13;35.82;94896.63;5036981;28;20211;-65
2023/08/18 10:07:34;;;;;;;5.70;4.38;;;;;;;29.13;36.33;94893.03;5020324;28;20641;-65
2023/08/18 10:10:04;;;;;;;4.00;3.60;;;;;;;29.18;36.05;94886.69;5037183;28;20186;-65
2023/08/18 10:12:31;;;;;;;6.15;4.70;;;;;;;29.33;36.84;94895.28;5020166;28;20222;-65
2023/08/18 10:14:59;;;;;;;4.75;4.07;;;;;;;29.43;35.64;94899.66;5036891;28;20194;-65
2023/08/18 10:17:27;;;;;;;3.95;3.65;;;;;;;29.45;35.41;94899.94;5036938;28;20198;-65
2023/08/18 10:19:56;;;;;;;3.97;3.53;;;;;;;29.33;35.62;94901.75;5020586;28;20195;-65
2023/08/18 10:22:25;;;;;;;4.43;3.60;;;;;;;29.35;35.44;94893.56;5020137;28;20221;-65
2023/08/18 10:24:54;;;;;;;3.85;3.55;;;;;;;29.39;35.79;94894.16;5019861;28;20206;-65
2023/08/18 10:27:37;;;;;;;4.50;3.83;;;;;;;29.53;36.11;94901.19;5037198;28;20199;-65
2023/08/18 10:30:26;;;;;;;3.97;3.58;;;;;;;29.64;35.11;94900.69;5036417;28;20276;-65
2023/08/18 10:33:00;;;;;;;3.90;3.60;;;;;;;29.77;34.89;94891.91;5036535;28;20194;-65
2023/08/18 10:35:29;;;;;;;3.95;3.67;;;;;;;29.84;35.06;94900.88;5036523;28;20201;-65
2023/08/18 10:37:59;;;;;;;3.90;3.70;;;;;;;29.96;34.49;94894.16;5036378;28;20246;-65
2023/08/18 10:40:29;;;;;;;4.55;3.58;;;;;;;29.90;33.83;94898.94;5036167;28;20202;-65
2023/08/18 10:43:05;;;;;;;6.25;3.60;;;;;;;29.85;34.39;94898.81;5053117;28;20195;-65
2023/08/18 10:45:33;;;;;;;5.13;4.25;;;;;;;29.81;34.08;94899.00;5036781;28;20194;-65
2023/08/18 10:48:00;;;;;;;5.13;3.90;;;;;;;29.82;35.06;94899.81;5037025;28;20191;-65
2023/08/18 10:50:29;;;;;;;4.68;3.70;;;;;;;29.92;34.98;94893.56;5052953;28;20198;-65
2023/08/18 10:53:01;;;;;;;5.43;3.95;;;;;;;30.02;34.87;94888.59;5052442;28;20198;-65
2023/08/18 10:55:30;;;;;;;4.78;3.95;;;;;;;30.04;34.53;94888.13;5035998;28;20206;-65
2023/08/18 10:58:02;;;;;;;4.65;4.18;;;;;;;30.14;33.81;94889.59;5052668;28;20209;-65
2023/08/18 11:00:34;;;;;;;5.05;4.28;;;;;;;30.11;34.68;94884.91;5036023;28;20625;-65
2023/08/18 11:03:03;;;;;;;5.70;4.07;;;;;;;30.24;34.97;94881.81;5052741;28;20187;-65
2023/08/18 11:05:33;;;;;;;5.50;4.18;;;;;;;30.35;34.98;94879.19;5052958;28;20248;-65
2023/08/18 11:08:01;;;;;;;4.45;4.00;;;;;;;30.49;34.22;94869.13;5035617;28;20199;-65
2023/08/18 11:10:29;;;;;;;4.78;4.13;;;;;;;30.59;34.08;94876.28;5036548;28;20694;-65
2023/08/18 11:12:59;;;;;;;4.28;3.90;;;;;;;30.66;34.03;94878.75;5052144;28;20222;-65
2023/08/18 11:15:27;;;;;;;4.50;4.10;;;;;;;30.72;33.91;94876.00;5036370;28;20201;-65
2023/08/18 11:17:55;;;;;;;4.95;4.07;;;;;;;30.73;33.71;94880.44;5035726;28;20218;-65
2023/08/18 11:20:24;;;;;;;4.47;4.07;;;;;;;30.58;33.69;94874.72;5035593;28;20237;-65
2023/08/18 11:22:52;;;;;;;5.53;4.28;;;;;;;30.58;34.42;94880.41;5035369;28;20198;-65
2023/08/18 11:25:22;;;;;;;4.47;4.07;;;;;;;30.63;33.33;94880.50;5052153;28;20202;-65
2023/08/18 11:27:50;;;;;;;5.15;4.20;;;;;;;30.59;33.38;94870.59;5052116;28;20241;-65
2023/08/18 11:30:20;;;;;;;4.80;4.30;;;;;;;30.61;34.09;94868.84;5052197;28;20191;-65
2023/08/18 11:32:48;;;;;;;5.28;4.40;;;;;;;30.70;33.39;94865.09;5035467;28;20218;-65
2023/08/18 11:35:18;;;;;;;6.57;4.00;;;;;;;30.85;33.06;94862.28;5035503;28;20203;-65
2023/08/18 11:37:48;;;;;;;4.53;4.13;;;;;;;30.93;32.93;94863.44;5037321;28;20202;-65
2023/08/18 11:40:18;;;;;;;4.32;3.75;;;;;;;31.00;33.47;94850.88;5055295;28;20203;-65